sensor_id;sensor_type;location;lat;lon;timestamp;temperature;humidity
18317;DHT22;9284;52.298;21.164;2023-09-08T00:00:08;14.10;99.90
18317;DHT22;9284;52.298;21.164;2023-09-08T00:02:37;14.10;99.90
18317;DHT22;9284;52.298;21.164;2023-09-08T00:05:05;14.00;99.90
18317;DHT22;9284;52.298;21.164;2023-09-08T00:07:33;14.00;99.90
18317;DHT22;9284;52.298;21.164;2023-09-08T00:10:02;14.00;99.90
18317;DHT22;9284;52.298;21.164;2023-09-08T00:12:30;14.00;99.90
18317;DHT22;9284;52.298;21.164;2023-09-08T00:15:00;13.90;99.90
18317;DHT22;9284;52.298;21.164;2023-09-08T00:17:28;13.90;99.90
18317;DHT22;9284;52.298;21.164;2023-09-08T00:19:57;13.90;99.90
18317;DHT22;9284;52.298;21.164;2023-09-08T00:22:25;13.80;99.90
18317;DHT22;9284;52.298;21.164;2023-09-08T00:24:53;13.80;99.90
18317;DHT22;9284;52.298;21.164;2023-09-08T00:27:22;13.80;99.90
18317;DHT22;9284;52.298;21.164;2023-09-08T00:29:50;13.80;99.90
18317;DHT22;9284;52.298;21.164;2023-09-08T00:32:20;13.70;99.90
18317;DHT22;9284;52.298;21.164;2023-09-08T00:34:48;13.70;99.90
18317;DHT22;9284;52.298;21.164;2023-09-08T00:37:17;13.70;99.90
18317;DHT22;9284;52.298;21.164;2023-09-08T00:39:45;13.70;99.90
18317;DHT22;9284;52.298;21.164;2023-09-08T00:42:13;13.70;99.90
18317;DHT22;9284;52.298;21.164;2023-09-08T00:44:42;13.70;99.90
18317;DHT22;9284;52.298;21.164;2023-09-08T00:47:11;13.70;99.90
18317;DHT22;9284;52.298;21.164;2023-09-08T00:49:40;13.80;99.90
18317;DHT22;9284;52.298;21.164;2023-09-08T00:52:09;13.80;99.90
18317;DHT22;9284;52.298;21.164;2023-09-08T00:54:37;13.80;99.90
18317;DHT22;9284;52.298;21.164;2023-09-08T00:57:06;13.80;99.90
18317;DHT22;9284;52.298;21.164;2023-09-08T00:59:35;13.90;99.90
18317;DHT22;9284;52.298;21.164;2023-09-08T01:02:04;13.90;99.90
18317;DHT22;9284;52.298;21.164;2023-09-08T01:04:33;13.90;99.90
18317;DHT22;9284;52.298;21.164;2023-09-08T01:07:03;13.90;99.90
18317;DHT22;9284;52.298;21.164;2023-09-08T01:09:32;14.00;99.90
18317;DHT22;9284;52.298;21.164;2023-09-08T01:12:03;14.00;99.90
18317;DHT22;9284;52.298;21.164;2023-09-08T01:14:31;14.00;99.90
18317;DHT22;9284;52.298;21.164;2023-09-08T01:16:59;14.00;99.90
18317;DHT22;9284;52.298;21.164;2023-09-08T01:19:29;14.00;99.90
18317;DHT22;9284;52.298;21.164;2023-09-08T01:22:20;14.00;99.90
18317;DHT22;9284;52.298;21.164;2023-09-08T01:25:12;13.90;99.90
18317;DHT22;9284;52.298;21.164;2023-09-08T01:27:46;14.00;99.90
18317;DHT22;9284;52.298;21.164;2023-09-08T01:30:16;14.00;99.90
18317;DHT22;9284;52.298;21.164;2023-09-08T01:32:45;14.00;99.90
18317;DHT22;9284;52.298;21.164;2023-09-08T01:35:14;14.00;99.90
18317;DHT22;9284;52.298;21.164;2023-09-08T01:37:45;14.00;99.90
18317;DHT22;9284;52.298;21.164;2023-09-08T01:40:16;13.90;99.90
18317;DHT22;9284;52.298;21.164;2023-09-08T01:42:45;13.90;99.90
18317;DHT22;9284;52.298;21.164;2023-09-08T01:45:14;13.90;99.90
18317;DHT22;9284;52.298;21.164;2023-09-08T01:47:42;13.90;99.90
18317;DHT22;9284;52.298;21.164;2023-09-08T01:50:11;13.90;99.90
18317;DHT22;9284;52.298;21.164;2023-09-08T01:52:39;13.80;99.90
18317;DHT22;9284;52.298;21.164;2023-09-08T01:55:08;13.80;99.90
18317;DHT22;9284;52.298;21.164;2023-09-08T01:57:40;13.80;99.90
18317;DHT22;9284;52.298;21.164;2023-09-08T02:00:09;13.80;99.90
18317;DHT22;9284;52.298;21.164;2023-09-08T02:02:40;13.80;99.90
18317;DHT22;9284;52.298;21.164;2023-09-08T02:05:09;13.70;99.90
18317;DHT22;9284;52.298;21.164;2023-09-08T02:07:37;13.70;99.90
18317;DHT22;9284;52.298;21.164;2023-09-08T02:10:06;13.70;99.90
18317;DHT22;9284;52.298;21.164;2023-09-08T02:12:34;13.70;99.90
18317;DHT22;9284;52.298;21.164;2023-09-08T02:15:05;13.70;99.90
18317;DHT22;9284;52.298;21.164;2023-09-08T02:17:34;13.70;99.90
18317;DHT22;9284;52.298;21.164;2023-09-08T02:20:03;13.70;99.90
18317;DHT22;9284;52.298;21.164;2023-09-08T02:22:31;13.70;99.90
18317;DHT22;9284;52.298;21.164;2023-09-08T02:25:00;13.70;99.90
18317;DHT22;9284;52.298;21.164;2023-09-08T02:27:28;13.60;99.90
18317;DHT22;9284;52.298;21.164;2023-09-08T02:29:57;13.70;99.90
18317;DHT22;9284;52.298;21.164;2023-09-08T02:32:27;13.70;99.90
18317;DHT22;9284;52.298;21.164;2023-09-08T02:34:55;13.70;99.90
18317;DHT22;9284;52.298;21.164;2023-09-08T02:37:24;13.70;99.90
18317;DHT22;9284;52.298;21.164;2023-09-08T02:39:53;13.60;99.90
18317;DHT22;9284;52.298;21.164;2023-09-08T02:42:21;13.60;99.90
18317;DHT22;9284;52.298;21.164;2023-09-08T02:44:49;13.60;99.90
18317;DHT22;9284;52.298;21.164;2023-09-08T02:47:19;13.60;99.90
18317;DHT22;9284;52.298;21.164;2023-09-08T02:49:50;13.60;99.90
18317;DHT22;9284;52.298;21.164;2023-09-08T02:52:18;13.60;99.90
18317;DHT22;9284;52.298;21.164;2023-09-08T02:54:47;13.60;99.90
18317;DHT22;9284;52.298;21.164;2023-09-08T02:57:16;13.60;99.90
18317;DHT22;9284;52.298;21.164;2023-09-08T02:59:49;13.60;99.90
18317;DHT22;9284;52.298;21.164;2023-09-08T03:02:17;13.60;99.90
18317;DHT22;9284;52.298;21.164;2023-09-08T03:04:46;13.60;99.90
18317;DHT22;9284;52.298;21.164;2023-09-08T03:07:16;13.60;99.90
18317;DHT22;9284;52.298;21.164;2023-09-08T03:09:45;13.60;99.90
18317;DHT22;9284;52.298;21.164;2023-09-08T03:12:14;13.60;99.90
18317;DHT22;9284;52.298;21.164;2023-09-08T03:14:42;13.60;99.90
18317;DHT22;9284;52.298;21.164;2023-09-08T03:17:11;13.60;99.90
18317;DHT22;9284;52.298;21.164;2023-09-08T03:19:40;13.60;99.90
18317;DHT22;9284;52.298;21.164;2023-09-08T03:22:08;13.60;99.90
18317;DHT22;9284;52.298;21.164;2023-09-08T03:24:38;13.60;99.90
18317;DHT22;9284;52.298;21.164;2023-09-08T03:27:06;13.50;99.90
18317;DHT22;9284;52.298;21.164;2023-09-08T03:29:35;13.50;99.90
18317;DHT22;9284;52.298;21.164;2023-09-08T03:32:04;13.50;99.90
18317;DHT22;9284;52.298;21.164;2023-09-08T03:34:33;13.50;99.90
18317;DHT22;9284;52.298;21.164;2023-09-08T03:37:07;13.50;99.90
18317;DHT22;9284;52.298;21.164;2023-09-08T03:39:35;13.40;99.90
18317;DHT22;9284;52.298;21.164;2023-09-08T03:42:05;13.40;99.90
18317;DHT22;9284;52.298;21.164;2023-09-08T03:44:34;13.40;99.90
18317;DHT22;9284;52.298;21.164;2023-09-08T03:47:02;13.40;99.90
18317;DHT22;9284;52.298;21.164;2023-09-08T03:49:31;13.40;99.90
18317;DHT22;9284;52.298;21.164;2023-09-08T03:52:00;13.40;99.90
18317;DHT22;9284;52.298;21.164;2023-09-08T03:54:30;13.40;99.90
18317;DHT22;9284;52.298;21.164;2023-09-08T03:56:58;13.40;99.90
18317;DHT22;9284;52.298;21.164;2023-09-08T03:59:28;13.40;99.90
18317;DHT22;9284;52.298;21.164;2023-09-08T04:01:56;13.40;99.90
18317;DHT22;9284;52.298;21.164;2023-09-08T04:04:25;13.40;99.90
18317;DHT22;9284;52.298;21.164;2023-09-08T04:06:53;13.40;99.90
18317;DHT22;9284;52.298;21.164;2023-09-08T04:09:21;13.40;99.90
18317;DHT22;9284;52.298;21.164;2023-09-08T04:11:50;13.30;99.90
18317;DHT22;9284;52.298;21.164;2023-09-08T04:14:18;13.40;99.90
18317;DHT22;9284;52.298;21.164;2023-09-08T04:16:47;13.40;99.90
18317;DHT22;9284;52.298;21.164;2023-09-08T04:19:16;13.30;99.90
18317;DHT22;9284;52.298;21.164;2023-09-08T04:21:44;13.40;99.90
18317;DHT22;9284;52.298;21.164;2023-09-08T04:24:13;13.30;99.90
18317;DHT22;9284;52.298;21.164;2023-09-08T04:26:41;13.40;99.90
18317;DHT22;9284;52.298;21.164;2023-09-08T04:29:09;13.30;99.90
18317;DHT22;9284;52.298;21.164;2023-09-08T04:31:38;13.30;99.90
18317;DHT22;9284;52.298;21.164;2023-09-08T04:34:07;13.30;99.90
18317;DHT22;9284;52.298;21.164;2023-09-08T04:36:36;13.40;99.90
18317;DHT22;9284;52.298;21.164;2023-09-08T04:39:04;13.40;99.90
18317;DHT22;9284;52.298;21.164;2023-09-08T04:41:36;13.40;99.90
18317;DHT22;9284;52.298;21.164;2023-09-08T04:44:05;13.40;99.90
18317;DHT22;9284;52.298;21.164;2023-09-08T04:46:34;13.50;99.90
18317;DHT22;9284;52.298;21.164;2023-09-08T04:49:03;13.60;99.90
18317;DHT22;9284;52.298;21.164;2023-09-08T04:51:34;13.60;99.90
18317;DHT22;9284;52.298;21.164;2023-09-08T04:54:04;13.70;99.90
18317;DHT22;9284;52.298;21.164;2023-09-08T04:56:32;13.70;99.90
18317;DHT22;9284;52.298;21.164;2023-09-08T04:59:01;13.80;99.90
18317;DHT22;9284;52.298;21.164;2023-09-08T05:01:29;13.80;99.90
18317;DHT22;9284;52.298;21.164;2023-09-08T05:04:01;13.90;99.90
18317;DHT22;9284;52.298;21.164;2023-09-08T05:06:30;13.90;99.90
18317;DHT22;9284;52.298;21.164;2023-09-08T05:09:00;14.00;99.90
18317;DHT22;9284;52.298;21.164;2023-09-08T05:11:30;14.10;99.90
18317;DHT22;9284;52.298;21.164;2023-09-08T05:13:58;14.10;99.90
18317;DHT22;9284;52.298;21.164;2023-09-08T05:16:27;14.20;99.90
18317;DHT22;9284;52.298;21.164;2023-09-08T05:19:09;14.20;99.90
18317;DHT22;9284;52.298;21.164;2023-09-08T05:21:38;14.20;99.90
18317;DHT22;9284;52.298;21.164;2023-09-08T05:24:08;14.30;99.90
18317;DHT22;9284;52.298;21.164;2023-09-08T05:26:37;14.40;99.90
18317;DHT22;9284;52.298;21.164;2023-09-08T05:29:06;14.40;99.90
18317;DHT22;9284;52.298;21.164;2023-09-08T05:31:35;14.50;99.90
18317;DHT22;9284;52.298;21.164;2023-09-08T05:34:03;14.60;99.90
18317;DHT22;9284;52.298;21.164;2023-09-08T05:36:32;14.60;99.90
18317;DHT22;9284;52.298;21.164;2023-09-08T05:39:03;14.80;99.90
18317;DHT22;9284;52.298;21.164;2023-09-08T05:41:34;14.90;99.90
18317;DHT22;9284;52.298;21.164;2023-09-08T05:44:04;15.10;99.90
18317;DHT22;9284;52.298;21.164;2023-09-08T05:46:33;15.20;99.90
18317;DHT22;9284;52.298;21.164;2023-09-08T05:49:02;15.40;99.90
18317;DHT22;9284;52.298;21.164;2023-09-08T05:51:31;15.60;99.90
18317;DHT22;9284;52.298;21.164;2023-09-08T05:54:01;15.80;99.90
18317;DHT22;9284;52.298;21.164;2023-09-08T05:56:30;16.00;99.90
18317;DHT22;9284;52.298;21.164;2023-09-08T05:59:00;16.20;99.90
18317;DHT22;9284;52.298;21.164;2023-09-08T06:01:30;16.40;99.90
18317;DHT22;9284;52.298;21.164;2023-09-08T06:04:02;16.70;99.90
18317;DHT22;9284;52.298;21.164;2023-09-08T06:06:31;17.10;99.90
18317;DHT22;9284;52.298;21.164;2023-09-08T06:08:59;17.50;99.90
18317;DHT22;9284;52.298;21.164;2023-09-08T06:11:28;18.20;99.90
18317;DHT22;9284;52.298;21.164;2023-09-08T06:13:56;19.30;99.90
18317;DHT22;9284;52.298;21.164;2023-09-08T06:16:32;20.00;99.90
18317;DHT22;9284;52.298;21.164;2023-09-08T06:19:00;20.70;99.90
18317;DHT22;9284;52.298;21.164;2023-09-08T06:21:30;21.50;99.90
18317;DHT22;9284;52.298;21.164;2023-09-08T06:23:59;21.70;99.90
18317;DHT22;9284;52.298;21.164;2023-09-08T06:26:28;22.40;99.90
18317;DHT22;9284;52.298;21.164;2023-09-08T06:28:57;23.00;99.90
18317;DHT22;9284;52.298;21.164;2023-09-08T06:31:25;23.30;99.90
18317;DHT22;9284;52.298;21.164;2023-09-08T06:33:55;23.20;99.90
18317;DHT22;9284;52.298;21.164;2023-09-08T06:36:24;23.60;99.90
18317;DHT22;9284;52.298;21.164;2023-09-08T06:38:53;24.00;99.90
18317;DHT22;9284;52.298;21.164;2023-09-08T06:41:21;24.00;99.90
18317;DHT22;9284;52.298;21.164;2023-09-08T06:43:52;24.50;99.90
18317;DHT22;9284;52.298;21.164;2023-09-08T06:46:22;23.90;99.90
18317;DHT22;9284;52.298;21.164;2023-09-08T06:48:50;23.40;99.90
18317;DHT22;9284;52.298;21.164;2023-09-08T06:51:20;23.30;99.90
18317;DHT22;9284;52.298;21.164;2023-09-08T06:53:54;23.30;99.90
18317;DHT22;9284;52.298;21.164;2023-09-08T06:56:27;23.40;99.90
18317;DHT22;9284;52.298;21.164;2023-09-08T06:58:56;24.00;99.90
18317;DHT22;9284;52.298;21.164;2023-09-08T07:01:26;24.60;99.90
18317;DHT22;9284;52.298;21.164;2023-09-08T07:03:54;24.90;99.90
18317;DHT22;9284;52.298;21.164;2023-09-08T07:06:24;25.10;99.90
18317;DHT22;9284;52.298;21.164;2023-09-08T07:08:54;25.50;99.90
18317;DHT22;9284;52.298;21.164;2023-09-08T07:11:23;25.80;99.90
18317;DHT22;9284;52.298;21.164;2023-09-08T07:13:51;25.90;99.90
18317;DHT22;9284;52.298;21.164;2023-09-08T07:16:19;25.70;99.90
18317;DHT22;9284;52.298;21.164;2023-09-08T07:18:49;25.90;99.90
18317;DHT22;9284;52.298;21.164;2023-09-08T07:21:17;26.20;99.90
18317;DHT22;9284;52.298;21.164;2023-09-08T07:23:47;26.50;99.90
18317;DHT22;9284;52.298;21.164;2023-09-08T07:26:16;26.30;99.90
18317;DHT22;9284;52.298;21.164;2023-09-08T07:28:45;26.50;99.90
18317;DHT22;9284;52.298;21.164;2023-09-08T07:31:15;27.00;99.90
18317;DHT22;9284;52.298;21.164;2023-09-08T07:33:47;27.60;99.90
18317;DHT22;9284;52.298;21.164;2023-09-08T07:36:15;27.60;99.90
18317;DHT22;9284;52.298;21.164;2023-09-08T07:38:46;27.80;99.90
18317;DHT22;9284;52.298;21.164;2023-09-08T07:41:15;27.80;99.90
18317;DHT22;9284;52.298;21.164;2023-09-08T07:43:43;27.90;99.90
18317;DHT22;9284;52.298;21.164;2023-09-08T07:46:16;28.10;99.90
18317;DHT22;9284;52.298;21.164;2023-09-08T07:48:45;28.00;99.90
18317;DHT22;9284;52.298;21.164;2023-09-08T07:51:13;27.80;99.90
18317;DHT22;9284;52.298;21.164;2023-09-08T07:53:41;27.40;99.90
18317;DHT22;9284;52.298;21.164;2023-09-08T07:56:11;27.90;99.90
18317;DHT22;9284;52.298;21.164;2023-09-08T07:58:40;27.90;99.90
18317;DHT22;9284;52.298;21.164;2023-09-08T08:01:08;28.40;99.90
18317;DHT22;9284;52.298;21.164;2023-09-08T08:03:36;28.10;99.90
18317;DHT22;9284;52.298;21.164;2023-09-08T08:06:05;27.60;99.90
18317;DHT22;9284;52.298;21.164;2023-09-08T08:08:33;27.90;99.90
18317;DHT22;9284;52.298;21.164;2023-09-08T08:11:11;28.00;99.90
18317;DHT22;9284;52.298;21.164;2023-09-08T08:13:40;27.90;99.90
18317;DHT22;9284;52.298;21.164;2023-09-08T08:16:08;27.70;99.90
18317;DHT22;9284;52.298;21.164;2023-09-08T08:18:37;27.60;99.90
18317;DHT22;9284;52.298;21.164;2023-09-08T08:21:06;27.20;99.90
18317;DHT22;9284;52.298;21.164;2023-09-08T08:23:35;26.80;99.90
18317;DHT22;9284;52.298;21.164;2023-09-08T08:26:06;27.20;99.90
18317;DHT22;9284;52.298;21.164;2023-09-08T08:28:36;27.10;99.90
18317;DHT22;9284;52.298;21.164;2023-09-08T08:31:04;27.00;99.90
18317;DHT22;9284;52.298;21.164;2023-09-08T08:33:32;27.20;99.90
18317;DHT22;9284;52.298;21.164;2023-09-08T08:36:01;27.40;99.90
18317;DHT22;9284;52.298;21.164;2023-09-08T08:38:30;27.20;99.90
18317;DHT22;9284;52.298;21.164;2023-09-08T08:41:04;27.00;99.90
18317;DHT22;9284;52.298;21.164;2023-09-08T08:43:32;26.80;99.90
18317;DHT22;9284;52.298;21.164;2023-09-08T08:46:03;26.70;99.90
18317;DHT22;9284;52.298;21.164;2023-09-08T08:48:32;26.60;99.90
18317;DHT22;9284;52.298;21.164;2023-09-08T08:51:01;26.40;99.90
18317;DHT22;9284;52.298;21.164;2023-09-08T08:53:31;26.10;99.90
18317;DHT22;9284;52.298;21.164;2023-09-08T08:56:00;26.10;99.90
18317;DHT22;9284;52.298;21.164;2023-09-08T08:58:29;26.00;99.90
18317;DHT22;9284;52.298;21.164;2023-09-08T09:00:59;25.80;99.90
18317;DHT22;9284;52.298;21.164;2023-09-08T09:03:29;25.60;99.90
18317;DHT22;9284;52.298;21.164;2023-09-08T09:05:59;25.50;99.90
18317;DHT22;9284;52.298;21.164;2023-09-08T09:08:28;25.80;99.90
18317;DHT22;9284;52.298;21.164;2023-09-08T09:10:57;26.10;99.90
18317;DHT22;9284;52.298;21.164;2023-09-08T09:13:25;26.40;99.90
18317;DHT22;9284;52.298;21.164;2023-09-08T09:15:58;26.50;99.90
18317;DHT22;9284;52.298;21.164;2023-09-08T09:18:28;26.60;99.90
18317;DHT22;9284;52.298;21.164;2023-09-08T09:20:59;26.40;99.90
18317;DHT22;9284;52.298;21.164;2023-09-08T09:23:28;26.30;99.90
18317;DHT22;9284;52.298;21.164;2023-09-08T09:25:57;26.40;99.90
18317;DHT22;9284;52.298;21.164;2023-09-08T09:28:28;26.20;99.90
18317;DHT22;9284;52.298;21.164;2023-09-08T09:30:57;26.10;99.90
18317;DHT22;9284;52.298;21.164;2023-09-08T09:33:29;25.90;99.90
18317;DHT22;9284;52.298;21.164;2023-09-08T09:35:58;25.90;99.90
18317;DHT22;9284;52.298;21.164;2023-09-08T09:38:27;25.90;99.90
18317;DHT22;9284;52.298;21.164;2023-09-08T09:40:55;25.90;99.90
18317;DHT22;9284;52.298;21.164;2023-09-08T09:43:25;26.00;99.90
18317;DHT22;9284;52.298;21.164;2023-09-08T09:45:56;26.10;99.90
18317;DHT22;9284;52.298;21.164;2023-09-08T09:48:24;25.90;99.90
18317;DHT22;9284;52.298;21.164;2023-09-08T09:50:54;26.00;99.90
18317;DHT22;9284;52.298;21.164;2023-09-08T09:53:23;26.10;99.90
18317;DHT22;9284;52.298;21.164;2023-09-08T09:55:51;26.20;99.90
18317;DHT22;9284;52.298;21.164;2023-09-08T09:58:20;26.00;99.90
18317;DHT22;9284;52.298;21.164;2023-09-08T10:00:50;26.10;99.90
18317;DHT22;9284;52.298;21.164;2023-09-08T10:03:19;26.10;99.90
18317;DHT22;9284;52.298;21.164;2023-09-08T10:05:48;26.20;99.90
18317;DHT22;9284;52.298;21.164;2023-09-08T10:08:18;26.40;99.90
18317;DHT22;9284;52.298;21.164;2023-09-08T10:10:46;26.70;99.90
18317;DHT22;9284;52.298;21.164;2023-09-08T10:13:20;26.80;99.90
18317;DHT22;9284;52.298;21.164;2023-09-08T10:15:50;26.60;98.60
18317;DHT22;9284;52.298;21.164;2023-09-08T10:18:20;26.40;99.80
18317;DHT22;9284;52.298;21.164;2023-09-08T10:20:51;26.40;98.40
18317;DHT22;9284;52.298;21.164;2023-09-08T10:23:28;26.80;99.90
18317;DHT22;9284;52.298;21.164;2023-09-08T10:26:03;26.80;98.20
18317;DHT22;9284;52.298;21.164;2023-09-08T10:28:34;27.00;98.70
18317;DHT22;9284;52.298;21.164;2023-09-08T10:31:05;27.20;97.70
18317;DHT22;9284;52.298;21.164;2023-09-08T10:33:36;27.30;97.70
18317;DHT22;9284;52.298;21.164;2023-09-08T10:36:05;27.40;97.70
18317;DHT22;9284;52.298;21.164;2023-09-08T10:38:36;27.10;97.40
18317;DHT22;9284;52.298;21.164;2023-09-08T10:41:26;27.40;97.70
18317;DHT22;9284;52.298;21.164;2023-09-08T10:44:02;27.40;96.50
18317;DHT22;9284;52.298;21.164;2023-09-08T10:46:32;27.50;98.00
18317;DHT22;9284;52.298;21.164;2023-09-08T10:49:03;27.60;97.10
18317;DHT22;9284;52.298;21.164;2023-09-08T10:51:35;27.20;96.40
18317;DHT22;9284;52.298;21.164;2023-09-08T10:54:06;27.00;95.90
18317;DHT22;9284;52.298;21.164;2023-09-08T10:56:48;27.00;96.80
18317;DHT22;9284;52.298;21.164;2023-09-08T10:59:17;27.30;97.50
18317;DHT22;9284;52.298;21.164;2023-09-08T11:01:47;27.70;96.70
18317;DHT22;9284;52.298;21.164;2023-09-08T11:04:17;28.00;96.10
18317;DHT22;9284;52.298;21.164;2023-09-08T11:06:46;28.20;96.00
18317;DHT22;9284;52.298;21.164;2023-09-08T11:09:16;28.10;95.30
18317;DHT22;9284;52.298;21.164;2023-09-08T11:11:45;28.20;94.80
18317;DHT22;9284;52.298;21.164;2023-09-08T11:14:13;28.10;95.50
18317;DHT22;9284;52.298;21.164;2023-09-08T11:16:43;28.20;95.60
18317;DHT22;9284;52.298;21.164;2023-09-08T11:19:11;28.10;94.70
18317;DHT22;9284;52.298;21.164;2023-09-08T11:21:39;28.20;94.20
18317;DHT22;9284;52.298;21.164;2023-09-08T11:24:08;28.60;93.30
18317;DHT22;9284;52.298;21.164;2023-09-08T11:26:43;28.40;93.50
18317;DHT22;9284;52.298;21.164;2023-09-08T11:29:13;28.60;92.60
18317;DHT22;9284;52.298;21.164;2023-09-08T11:31:42;28.30;93.40
18317;DHT22;9284;52.298;21.164;2023-09-08T11:34:11;28.20;93.10
18317;DHT22;9284;52.298;21.164;2023-09-08T11:36:41;28.00;93.60
18317;DHT22;9284;52.298;21.164;2023-09-08T11:39:10;28.00;93.20
18317;DHT22;9284;52.298;21.164;2023-09-08T11:41:38;27.90;94.10
18317;DHT22;9284;52.298;21.164;2023-09-08T11:44:08;28.10;93.90
18317;DHT22;9284;52.298;21.164;2023-09-08T11:46:37;28.30;92.60
18317;DHT22;9284;52.298;21.164;2023-09-08T11:49:06;28.60;92.50
18317;DHT22;9284;52.298;21.164;2023-09-08T11:51:34;28.70;90.80
18317;DHT22;9284;52.298;21.164;2023-09-08T11:54:05;28.50;91.70
18317;DHT22;9284;52.298;21.164;2023-09-08T11:56:33;28.40;91.90
18317;DHT22;9284;52.298;21.164;2023-09-08T11:59:03;28.30;93.50
18317;DHT22;9284;52.298;21.164;2023-09-08T12:01:33;28.10;92.70
18317;DHT22;9284;52.298;21.164;2023-09-08T12:04:02;28.20;92.40
18317;DHT22;9284;52.298;21.164;2023-09-08T12:06:30;28.10;93.20
18317;DHT22;9284;52.298;21.164;2023-09-08T12:09:01;28.00;93.30
18317;DHT22;9284;52.298;21.164;2023-09-08T12:11:32;27.70;93.70
18317;DHT22;9284;52.298;21.164;2023-09-08T12:14:02;27.10;93.70
18317;DHT22;9284;52.298;21.164;2023-09-08T12:16:30;27.30;93.80
18317;DHT22;9284;52.298;21.164;2023-09-08T12:19:00;27.30;94.10
18317;DHT22;9284;52.298;21.164;2023-09-08T12:21:29;27.30;93.40
18317;DHT22;9284;52.298;21.164;2023-09-08T12:23:58;27.30;93.00
18317;DHT22;9284;52.298;21.164;2023-09-08T12:26:27;27.20;92.60
18317;DHT22;9284;52.298;21.164;2023-09-08T12:28:57;27.20;94.00
18317;DHT22;9284;52.298;21.164;2023-09-08T12:31:25;27.10;92.90
18317;DHT22;9284;52.298;21.164;2023-09-08T12:33:53;27.10;92.10
18317;DHT22;9284;52.298;21.164;2023-09-08T12:36:25;27.10;91.30
18317;DHT22;9284;52.298;21.164;2023-09-08T12:38:54;27.20;91.70
18317;DHT22;9284;52.298;21.164;2023-09-08T12:41:23;27.10;92.60
18317;DHT22;9284;52.298;21.164;2023-09-08T12:43:51;27.00;91.50
18317;DHT22;9284;52.298;21.164;2023-09-08T12:46:20;26.80;91.90
18317;DHT22;9284;52.298;21.164;2023-09-08T12:48:48;26.90;92.50
18317;DHT22;9284;52.298;21.164;2023-09-08T12:51:17;26.90;93.10
18317;DHT22;9284;52.298;21.164;2023-09-08T12:53:46;27.00;92.20
18317;DHT22;9284;52.298;21.164;2023-09-08T12:56:15;27.00;93.30
18317;DHT22;9284;52.298;21.164;2023-09-08T12:58:45;27.20;93.00
18317;DHT22;9284;52.298;21.164;2023-09-08T13:01:14;27.30;93.80
18317;DHT22;9284;52.298;21.164;2023-09-08T13:03:42;27.30;92.60
18317;DHT22;9284;52.298;21.164;2023-09-08T13:06:10;27.40;93.00
18317;DHT22;9284;52.298;21.164;2023-09-08T13:08:39;27.40;93.00
18317;DHT22;9284;52.298;21.164;2023-09-08T13:11:08;27.30;91.70
18317;DHT22;9284;52.298;21.164;2023-09-08T13:13:37;27.10;92.10
18317;DHT22;9284;52.298;21.164;2023-09-08T13:16:05;27.20;93.30
18317;DHT22;9284;52.298;21.164;2023-09-08T13:18:33;27.20;92.70
18317;DHT22;9284;52.298;21.164;2023-09-08T13:21:05;27.30;92.20
18317;DHT22;9284;52.298;21.164;2023-09-08T13:23:33;27.30;92.40
18317;DHT22;9284;52.298;21.164;2023-09-08T13:26:02;27.30;92.40
18317;DHT22;9284;52.298;21.164;2023-09-08T13:28:31;27.30;93.00
18317;DHT22;9284;52.298;21.164;2023-09-08T13:31:00;27.40;93.00
18317;DHT22;9284;52.298;21.164;2023-09-08T13:33:29;27.30;92.30
18317;DHT22;9284;52.298;21.164;2023-09-08T13:35:57;27.20;92.30
18317;DHT22;9284;52.298;21.164;2023-09-08T13:38:25;27.30;92.40
18317;DHT22;9284;52.298;21.164;2023-09-08T13:40:54;27.10;91.50
18317;DHT22;9284;52.298;21.164;2023-09-08T13:43:22;27.10;92.30
18317;DHT22;9284;52.298;21.164;2023-09-08T13:45:52;27.10;92.50
18317;DHT22;9284;52.298;21.164;2023-09-08T13:48:20;27.00;91.80
18317;DHT22;9284;52.298;21.164;2023-09-08T13:50:51;26.90;91.10
18317;DHT22;9284;52.298;21.164;2023-09-08T13:53:21;26.80;91.40
18317;DHT22;9284;52.298;21.164;2023-09-08T13:56:07;26.70;91.10
18317;DHT22;9284;52.298;21.164;2023-09-08T13:58:36;26.60;91.60
18317;DHT22;9284;52.298;21.164;2023-09-08T14:01:17;26.50;90.70
18317;DHT22;9284;52.298;21.164;2023-09-08T14:03:47;26.50;91.40
18317;DHT22;9284;52.298;21.164;2023-09-08T14:06:21;26.50;90.80
18317;DHT22;9284;52.298;21.164;2023-09-08T14:08:57;26.40;91.50
18317;DHT22;9284;52.298;21.164;2023-09-08T14:11:28;26.40;92.80
18317;DHT22;9284;52.298;21.164;2023-09-08T14:13:59;26.40;91.90
18317;DHT22;9284;52.298;21.164;2023-09-08T14:16:29;26.40;92.60
18317;DHT22;9284;52.298;21.164;2023-09-08T14:18:58;26.30;91.50
18317;DHT22;9284;52.298;21.164;2023-09-08T14:21:26;26.30;91.80
18317;DHT22;9284;52.298;21.164;2023-09-08T14:23:56;26.30;91.60
18317;DHT22;9284;52.298;21.164;2023-09-08T14:26:25;26.30;91.50
18317;DHT22;9284;52.298;21.164;2023-09-08T14:28:53;26.30;91.70
18317;DHT22;9284;52.298;21.164;2023-09-08T14:31:22;26.20;91.60
18317;DHT22;9284;52.298;21.164;2023-09-08T14:33:51;26.30;92.00
18317;DHT22;9284;52.298;21.164;2023-09-08T14:36:20;26.20;92.00
18317;DHT22;9284;52.298;21.164;2023-09-08T14:38:48;26.20;92.60
18317;DHT22;9284;52.298;21.164;2023-09-08T14:41:16;26.10;92.20
18317;DHT22;9284;52.298;21.164;2023-09-08T14:43:45;26.10;92.90
18317;DHT22;9284;52.298;21.164;2023-09-08T14:46:13;26.00;92.90
18317;DHT22;9284;52.298;21.164;2023-09-08T14:48:41;26.10;91.80
18317;DHT22;9284;52.298;21.164;2023-09-08T14:51:12;26.10;93.10
18317;DHT22;9284;52.298;21.164;2023-09-08T14:53:41;26.00;92.70
18317;DHT22;9284;52.298;21.164;2023-09-08T14:56:10;26.00;93.30
18317;DHT22;9284;52.298;21.164;2023-09-08T14:58:38;25.90;93.90
18317;DHT22;9284;52.298;21.164;2023-09-08T15:01:06;25.90;92.40
18317;DHT22;9284;52.298;21.164;2023-09-08T15:03:35;25.90;94.10
18317;DHT22;9284;52.298;21.164;2023-09-08T15:06:04;25.90;93.60
18317;DHT22;9284;52.298;21.164;2023-09-08T15:08:34;25.90;93.20
18317;DHT22;9284;52.298;21.164;2023-09-08T15:11:02;25.90;92.80
18317;DHT22;9284;52.298;21.164;2023-09-08T15:13:31;25.90;93.50
18317;DHT22;9284;52.298;21.164;2023-09-08T15:15:59;25.80;93.20
18317;DHT22;9284;52.298;21.164;2023-09-08T15:18:28;25.80;93.50
18317;DHT22;9284;52.298;21.164;2023-09-08T15:20:56;25.80;93.60
18317;DHT22;9284;52.298;21.164;2023-09-08T15:23:24;25.70;93.90
18317;DHT22;9284;52.298;21.164;2023-09-08T15:25:56;25.70;93.50
18317;DHT22;9284;52.298;21.164;2023-09-08T15:28:25;25.70;93.50
18317;DHT22;9284;52.298;21.164;2023-09-08T15:30:54;25.50;96.70
18317;DHT22;9284;52.298;21.164;2023-09-08T15:33:23;25.40;95.00
18317;DHT22;9284;52.298;21.164;2023-09-08T15:35:52;25.40;95.80
18317;DHT22;9284;52.298;21.164;2023-09-08T15:38:22;25.30;96.90
18317;DHT22;9284;52.298;21.164;2023-09-08T15:41:14;25.20;96.60
18317;DHT22;9284;52.298;21.164;2023-09-08T15:43:50;25.20;97.60